Time,TemperatureF,DewpointF,PressureIn,WindDirection,WindDirectionDegrees,WindSpeedMPH,WindSpeedGustMPH,Humidity,HourlyPrecipIn,Conditions,Clouds,dailyrainin,SolarRadiationWatts/m^2,SoftwareType,DateUTC
2013-05-12 00:01:00,39.0,26.0,-100.00,East,99,2.0,3.0,60,0.00,,,0.00,0.000000,,2013-05-12 06:01:00,
2013-05-12 00:11:00,39.0,26.0,-100.00,East,99,2.0,3.0,60,0.00,,,0.00,0.000000,,2013-05-12 06:11:00,
2013-05-12 00:21:00,39.0,26.0,-100.00,East,99,2.0,3.0,60,0.00,,,0.00,0.000000,,2013-05-12 06:21:00,
2013-05-12 00:42:00,38.0,27.0,-100.00,ENE,75,2.0,3.0,63,0.00,,,0.00,0.000000,,2013-05-12 06:42:00,
2013-05-12 00:52:00,38.0,27.0,-100.00,ENE,75,2.0,3.0,63,0.00,,,0.00,0.000000,,2013-05-12 06:52:00,
2013-05-12 01:01:00,38.0,27.0,-100.00,ENE,75,2.0,3.0,63,0.00,,,0.00,0.000000,,2013-05-12 07:01:00,
2013-05-12 01:11:00,38.0,27.0,-100.00,ENE,75,2.0,3.0,63,0.00,,,0.00,0.000000,,2013-05-12 07:11:00,
2013-05-12 01:21:00,38.0,27.0,-100.00,ENE,75,2.0,3.0,63,0.00,,,0.00,0.000000,,2013-05-12 07:21:00,
2013-05-12 01:42:00,39.0,26.0,-100.00,East,79,2.0,3.0,59,0.00,,,0.00,0.000000,,2013-05-12 07:42:00,
2013-05-12 01:52:00,39.0,26.0,-100.00,East,79,2.0,3.0,59,0.00,,,0.00,0.000000,,2013-05-12 07:52:00,
2013-05-12 02:02:00,39.0,26.0,-100.00,East,79,2.0,3.0,59,0.00,,,0.00,0.000000,,2013-05-12 08:02:00,
2013-05-12 02:11:00,39.0,26.0,-100.00,East,79,2.0,3.0,59,0.00,,,0.00,0.000000,,2013-05-12 08:11:00,
2013-05-12 02:21:00,39.0,26.0,-100.00,East,79,2.0,3.0,59,0.00,,,0.00,0.000000,,2013-05-12 08:21:00,
2013-05-12 02:42:00,39.0,25.0,-100.00,SE,129,2.0,3.0,58,0.00,,,0.00,0.000000,,2013-05-12 08:42:00,
2013-05-12 02:53:00,39.0,25.0,-100.00,SE,129,2.0,3.0,58,0.00,,,0.00,0.000000,,2013-05-12 08:53:00,
2013-05-12 03:01:00,39.0,25.0,-100.00,SE,129,2.0,3.0,58,0.00,,,0.00,0.000000,,2013-05-12 09:01:00,
2013-05-12 03:11:00,39.0,25.0,-100.00,SE,129,2.0,3.0,58,0.00,,,0.00,0.000000,,2013-05-12 09:11:00,
2013-05-12 03:21:00,39.0,25.0,-100.00,SE,129,2.0,3.0,58,0.00,,,0.00,0.000000,,2013-05-12 09:21:00,
2013-05-12 03:22:00,38.0,27.0,-100.00,ESE,118,2.0,3.0,64,0.00,,,0.00,0.000000,,2013-05-12 09:22:00,
2013-05-12 03:43:00,38.0,27.0,-100.00,ESE,118,2.0,3.0,64,0.00,,,0.00,0.000000,,2013-05-12 09:43:00,
2013-05-12 03:53:00,38.0,27.0,-100.00,ESE,118,2.0,3.0,64,0.00,,,0.00,0.000000,,2013-05-12 09:53:00,
2013-05-12 04:03:00,38.0,27.0,-100.00,ESE,118,2.0,3.0,64,0.00,,,0.00,0.000000,,2013-05-12 10:03:00,
2013-05-12 04:12:00,38.0,27.0,-100.00,ESE,118,2.0,3.0,64,0.00,,,0.00,0.000000,,2013-05-12 10:12:00,
2013-05-12 04:42:00,38.0,28.0,-100.00,SSE,158,2.0,4.0,66,0.00,,,0.00,0.000000,,2013-05-12 10:42:00,
2013-05-12 04:52:00,38.0,28.0,-100.00,SSE,158,2.0,4.0,66,0.00,,,0.00,0.000000,,2013-05-12 10:52:00,
2013-05-12 05:02:00,38.0,28.0,-100.00,SSE,158,2.0,4.0,66,0.00,,,0.00,0.000000,,2013-05-12 11:02:00,
2013-05-12 05:12:00,38.0,28.0,-100.00,SSE,158,2.0,4.0,66,0.00,,,0.00,0.000000,,2013-05-12 11:12:00,
2013-05-12 05:21:00,38.0,28.0,-100.00,SSE,158,2.0,4.0,66,0.00,,,0.00,0.000000,,2013-05-12 11:21:00,
2013-05-12 05:42:00,35.0,26.0,-100.00,SSE,149,2.0,3.0,70,0.00,,,0.00,0.000000,,2013-05-12 11:42:00,
2013-05-12 05:52:00,35.0,26.0,-100.00,SSE,149,2.0,3.0,70,0.00,,,0.00,0.000000,,2013-05-12 11:52:00,
2013-05-12 06:02:00,35.0,26.0,-100.00,SSE,149,2.0,3.0,70,0.00,,,0.00,0.000000,,2013-05-12 12:02:00,
2013-05-12 06:11:00,35.0,26.0,-100.00,SSE,149,2.0,3.0,70,0.00,,,0.00,0.000000,,2013-05-12 12:11:00,
2013-05-12 06:21:00,35.0,26.0,-100.00,SSE,149,2.0,3.0,70,0.00,,,0.00,0.000000,,2013-05-12 12:21:00,
2013-05-12 06:42:00,34.0,27.0,-100.00,SE,138,2.0,4.0,76,0.00,,,0.00,8.000000,,2013-05-12 12:42:00,
2013-05-12 06:52:00,34.0,27.0,-100.00,SE,138,2.0,4.0,76,0.00,,,0.00,8.000000,,2013-05-12 12:52:00,
2013-05-12 07:02:00,34.0,27.0,-100.00,SE,138,2.0,4.0,76,0.00,,,0.00,8.000000,,2013-05-12 13:02:00,
2013-05-12 07:11:00,34.0,27.0,-100.00,SE,138,2.0,4.0,76,0.00,,,0.00,8.000000,,2013-05-12 13:11:00,
2013-05-12 07:21:00,34.0,27.0,-100.00,SE,138,2.0,4.0,76,0.00,,,0.00,8.000000,,2013-05-12 13:21:00,
2013-05-12 07:42:00,37.0,28.0,-100.00,SE,136,2.0,4.0,71,0.00,,,0.00,39.000000,,2013-05-12 13:42:00,
2013-05-12 07:52:00,37.0,28.0,-100.00,SE,136,2.0,4.0,71,0.00,,,0.00,39.000000,,2013-05-12 13:52:00,
2013-05-12 08:01:00,37.0,28.0,-100.00,SE,136,2.0,4.0,71,0.00,,,0.00,39.000000,,2013-05-12 14:01:00,
2013-05-12 08:11:00,37.0,28.0,-100.00,SE,136,2.0,4.0,71,0.00,,,0.00,39.000000,,2013-05-12 14:11:00,
2013-05-12 08:21:00,37.0,28.0,-100.00,SE,136,2.0,4.0,71,0.00,,,0.00,39.000000,,2013-05-12 14:21:00,
2013-05-12 08:42:00,43.0,31.0,-100.00,NW,318,2.0,3.0,63,0.00,,,-99.99,144.000000,,2013-05-12 14:42:00,
2013-05-12 08:52:00,43.0,31.0,-100.00,NW,318,2.0,3.0,63,0.00,,,-99.99,144.000000,,2013-05-12 14:52:00,
2013-05-12 09:01:00,43.0,31.0,-100.00,NW,318,2.0,3.0,63,0.00,,,-99.99,144.000000,,2013-05-12 15:01:00,
2013-05-12 09:11:00,43.0,31.0,-100.00,NW,318,2.0,3.0,63,0.00,,,-99.99,144.000000,,2013-05-12 15:11:00,
2013-05-12 09:21:00,43.0,31.0,-100.00,NW,318,2.0,3.0,63,0.00,,,-99.99,144.000000,,2013-05-12 15:21:00,
2013-05-12 09:22:00,50.0,30.0,-100.00,WNW,285,2.0,4.0,46,0.00,,,0.00,617.000000,,2013-05-12 15:22:00,
2013-05-12 09:42:00,50.0,30.0,-100.00,WNW,285,2.0,4.0,46,0.00,,,0.00,617.000000,,2013-05-12 15:42:00,
2013-05-12 09:53:00,50.0,30.0,-100.00,WNW,285,2.0,4.0,46,0.00,,,0.00,617.000000,,2013-05-12 15:53:00,
2013-05-12 10:02:00,50.0,30.0,-100.00,WNW,285,2.0,4.0,46,0.00,,,0.00,617.000000,,2013-05-12 16:02:00,
2013-05-12 10:12:00,50.0,30.0,-100.00,WNW,285,2.0,4.0,46,0.00,,,0.00,617.000000,,2013-05-12 16:12:00,
2013-05-12 10:22:00,54.0,30.0,-100.00,West,281,3.0,5.0,39,0.00,,,0.00,839.000000,,2013-05-12 16:22:00,
2013-05-12 10:42:00,54.0,30.0,-100.00,West,281,3.0,5.0,39,0.00,,,0.00,839.000000,,2013-05-12 16:42:00,
2013-05-12 10:53:00,54.0,30.0,-100.00,West,281,3.0,5.0,39,0.00,,,0.00,839.000000,,2013-05-12 16:53:00,
2013-05-12 11:02:00,54.0,30.0,-100.00,West,281,3.0,5.0,39,0.00,,,0.00,839.000000,,2013-05-12 17:02:00,
2013-05-12 11:12:00,54.0,30.0,-100.00,West,281,3.0,5.0,39,0.00,,,0.00,839.000000,,2013-05-12 17:12:00,
2013-05-12 11:22:00,55.0,29.0,-100.00,West,279,4.0,7.0,37,0.00,,,0.00,914.000000,,2013-05-12 17:22:00,
2013-05-12 11:42:00,55.0,29.0,-100.00,West,279,4.0,7.0,37,0.00,,,0.00,914.000000,,2013-05-12 17:42:00,
2013-05-12 11:53:00,55.0,29.0,-100.00,West,279,4.0,7.0,37,0.00,,,0.00,914.000000,,2013-05-12 17:53:00,
2013-05-12 12:01:00,55.0,29.0,-100.00,West,279,4.0,7.0,37,0.00,,,0.00,914.000000,,2013-05-12 18:01:00,
2013-05-12 12:12:00,55.0,29.0,-100.00,West,279,4.0,7.0,37,0.00,,,0.00,914.000000,,2013-05-12 18:12:00,
2013-05-12 12:42:00,59.0,28.0,-100.00,WNW,283,5.0,8.0,30,0.00,,,0.00,1040.000000,,2013-05-12 18:42:00,
2013-05-12 12:52:00,59.0,28.0,-100.00,WNW,283,5.0,8.0,30,0.00,,,0.00,1040.000000,,2013-05-12 18:52:00,
2013-05-12 13:01:00,59.0,28.0,-100.00,WNW,283,5.0,8.0,30,0.00,,,0.00,1040.000000,,2013-05-12 19:01:00,
2013-05-12 13:11:00,59.0,28.0,-100.00,WNW,283,5.0,8.0,30,0.00,,,0.00,1040.000000,,2013-05-12 19:11:00,
2013-05-12 13:21:00,59.0,28.0,-100.00,WNW,283,5.0,8.0,30,0.00,,,0.00,1040.000000,,2013-05-12 19:21:00,
2013-05-12 13:42:00,60.0,28.0,-100.00,WSW,251,3.0,8.0,29,0.00,,,0.00,933.000000,,2013-05-12 19:42:00,
2013-05-12 13:52:00,60.0,28.0,-100.00,WSW,251,3.0,8.0,29,0.00,,,0.00,933.000000,,2013-05-12 19:52:00,
2013-05-12 14:02:00,60.0,28.0,-100.00,WSW,251,3.0,8.0,29,0.00,,,0.00,933.000000,,2013-05-12 20:02:00,
2013-05-12 14:11:00,60.0,28.0,-100.00,WSW,251,3.0,8.0,29,0.00,,,0.00,933.000000,,2013-05-12 20:11:00,
2013-05-12 14:21:00,60.0,28.0,-100.00,WSW,251,3.0,8.0,29,0.00,,,0.00,933.000000,,2013-05-12 20:21:00,
2013-05-12 14:42:00,64.0,27.0,-100.00,WNW,282,5.0,11.0,25,0.00,,,0.00,1023.000000,,2013-05-12 20:42:00,
2013-05-12 14:52:00,64.0,27.0,-100.00,WNW,282,5.0,11.0,25,0.00,,,0.00,1023.000000,,2013-05-12 20:52:00,
2013-05-12 15:01:00,64.0,27.0,-100.00,WNW,282,5.0,11.0,25,0.00,,,0.00,1023.000000,,2013-05-12 21:01:00,
2013-05-12 15:11:00,64.0,27.0,-100.00,WNW,282,5.0,11.0,25,0.00,,,0.00,1023.000000,,2013-05-12 21:11:00,
2013-05-12 15:21:00,64.0,27.0,-100.00,WNW,282,5.0,11.0,25,0.00,,,0.00,1023.000000,,2013-05-12 21:21:00,
2013-05-12 15:22:00,60.0,25.0,-100.00,WNW,297,3.0,10.0,26,0.00,,,0.00,614.000000,,2013-05-12 21:22:00,
2013-05-12 15:42:00,60.0,25.0,-100.00,WNW,297,3.0,10.0,26,0.00,,,0.00,614.000000,,2013-05-12 21:42:00,
2013-05-12 15:53:00,60.0,25.0,-100.00,WNW,297,3.0,10.0,26,0.00,,,0.00,614.000000,,2013-05-12 21:53:00,
2013-05-12 16:02:00,60.0,25.0,-100.00,WNW,297,3.0,10.0,26,0.00,,,0.00,614.000000,,2013-05-12 22:02:00,
2013-05-12 16:12:00,60.0,25.0,-100.00,WNW,297,3.0,10.0,26,0.00,,,0.00,614.000000,,2013-05-12 22:12:00,
2013-05-12 16:22:00,61.0,25.0,-100.00,West,276,6.0,11.0,25,0.00,,,0.00,483.000000,,2013-05-12 22:22:00,
2013-05-12 16:42:00,61.0,25.0,-100.00,West,276,6.0,11.0,25,0.00,,,0.00,483.000000,,2013-05-12 22:42:00,
2013-05-12 16:52:00,61.0,25.0,-100.00,West,276,6.0,11.0,25,0.00,,,0.00,483.000000,,2013-05-12 22:52:00,
2013-05-12 17:02:00,61.0,25.0,-100.00,West,276,6.0,11.0,25,0.00,,,0.00,483.000000,,2013-05-12 23:02:00,
2013-05-12 17:12:00,61.0,25.0,-100.00,West,276,6.0,11.0,25,0.00,,,0.00,483.000000,,2013-05-12 23:12:00,
2013-05-12 17:42:00,61.0,23.0,-100.00,West,270,6.0,12.0,23,0.00,,,0.00,555.000000,,2013-05-12 23:42:00,
2013-05-12 17:52:00,61.0,23.0,-100.00,West,270,6.0,12.0,23,0.00,,,0.00,555.000000,,2013-05-12 23:52:00,
2013-05-12 18:01:00,61.0,23.0,-100.00,West,270,6.0,12.0,23,0.00,,,0.00,555.000000,,2013-05-13 00:01:00,
2013-05-12 18:11:00,61.0,23.0,-100.00,West,270,6.0,12.0,23,0.00,,,0.00,555.000000,,2013-05-13 00:11:00,
2013-05-12 18:21:00,61.0,23.0,-100.00,West,270,6.0,12.0,23,0.00,,,0.00,555.000000,,2013-05-13 00:21:00,
2013-05-12 18:22:00,61.0,22.0,-100.00,WNW,286,5.0,11.0,22,0.00,,,0.00,393.000000,,2013-05-13 00:22:00,
2013-05-12 18:42:00,61.0,22.0,-100.00,WNW,286,5.0,11.0,22,0.00,,,0.00,393.000000,,2013-05-13 00:42:00,
2013-05-12 18:52:00,61.0,22.0,-100.00,WNW,286,5.0,11.0,22,0.00,,,0.00,393.000000,,2013-05-13 00:52:00,
2013-05-12 19:01:00,61.0,22.0,-100.00,WNW,286,5.0,11.0,22,0.00,,,0.00,393.000000,,2013-05-13 01:01:00,
2013-05-12 19:11:00,61.0,22.0,-100.00,WNW,286,5.0,11.0,22,0.00,,,0.00,393.000000,,2013-05-13 01:11:00,
2013-05-12 19:42:00,59.0,25.0,-100.00,WNW,288,5.0,11.0,27,0.00,,,0.00,210.000000,,2013-05-13 01:42:00,
2013-05-12 19:52:00,59.0,25.0,-100.00,WNW,288,5.0,11.0,27,0.00,,,0.00,210.000000,,2013-05-13 01:52:00,
2013-05-12 20:01:00,59.0,25.0,-100.00,WNW,288,5.0,11.0,27,0.00,,,0.00,210.000000,,2013-05-13 02:01:00,
2013-05-12 20:11:00,59.0,25.0,-100.00,WNW,288,5.0,11.0,27,0.00,,,0.00,210.000000,,2013-05-13 02:11:00,
2013-05-12 20:21:00,59.0,25.0,-100.00,WNW,288,5.0,11.0,27,0.00,,,0.00,210.000000,,2013-05-13 02:21:00,
2013-05-12 20:42:00,54.0,27.0,-100.00,West,268,2.0,9.0,35,0.00,,,0.00,31.000000,,2013-05-13 02:42:00,
2013-05-12 20:52:00,54.0,27.0,-100.00,West,268,2.0,9.0,35,0.00,,,0.00,31.000000,,2013-05-13 02:52:00,
2013-05-12 21:02:00,54.0,27.0,-100.00,West,268,2.0,9.0,35,0.00,,,0.00,31.000000,,2013-05-13 03:02:00,
2013-05-12 21:11:00,54.0,27.0,-100.00,West,268,2.0,9.0,35,0.00,,,0.00,31.000000,,2013-05-13 03:11:00,
2013-05-12 21:21:00,54.0,27.0,-100.00,West,268,2.0,9.0,35,0.00,,,0.00,31.000000,,2013-05-13 03:21:00,
2013-05-12 21:22:00,51.0,26.0,-100.00,WSW,246,3.0,4.0,38,0.00,,,0.00,0.000000,,2013-05-13 03:22:00,
2013-05-12 21:42:00,51.0,26.0,-100.00,WSW,246,3.0,4.0,38,0.00,,,0.00,0.000000,,2013-05-13 03:42:00,
2013-05-12 21:53:00,51.0,26.0,-100.00,WSW,246,3.0,4.0,38,0.00,,,0.00,0.000000,,2013-05-13 03:53:00,
2013-05-12 22:02:00,51.0,26.0,-100.00,WSW,246,3.0,4.0,38,0.00,,,0.00,0.000000,,2013-05-13 04:02:00,
2013-05-12 22:12:00,51.0,26.0,-100.00,WSW,246,3.0,4.0,38,0.00,,,0.00,0.000000,,2013-05-13 04:12:00,
2013-05-12 22:42:00,50.0,27.0,-100.00,SW,224,3.0,5.0,41,0.00,,,0.00,0.000000,,2013-05-13 04:42:00,
2013-05-12 22:53:00,50.0,27.0,-100.00,SW,224,3.0,5.0,41,0.00,,,0.00,0.000000,,2013-05-13 04:53:00,
2013-05-12 23:02:00,50.0,27.0,-100.00,SW,224,3.0,5.0,41,0.00,,,0.00,0.000000,,2013-05-13 05:02:00,
2013-05-12 23:12:00,50.0,27.0,-100.00,SW,224,3.0,5.0,41,0.00,,,0.00,0.000000,,2013-05-13 05:12:00,
2013-05-12 23:21:00,50.0,27.0,-100.00,SW,224,3.0,5.0,41,0.00,,,0.00,0.000000,,2013-05-13 05:21:00,
2013-05-12 23:42:00,49.0,28.0,-100.00,WSW,251,2.0,4.0,44,0.00,,,0.00,0.000000,,2013-05-13 05:42:00,
2013-05-12 23:52:00,49.0,28.0,-100.00,WSW,251,2.0,4.0,44,0.00,,,0.00,0.000000,,2013-05-13 05:52:00,